createdAt,value
2023-04-02T00:00:54.103Z,94323.00
2023-04-02T00:01:54.141Z,94321.00
2023-04-02T00:02:54.181Z,94321.00
2023-04-02T00:03:54.324Z,94317.00
2023-04-02T00:04:54.139Z,94323.00
2023-04-02T00:05:54.126Z,94323.00
2023-04-02T00:06:54.176Z,94319.00
2023-04-02T00:07:54.162Z,94327.00
2023-04-02T00:08:54.230Z,94327.00
2023-04-02T00:09:54.215Z,94321.00
2023-04-02T00:10:54.216Z,94325.00
2023-04-02T00:11:54.230Z,94327.00
2023-04-02T00:12:54.236Z,94321.00
2023-04-02T00:13:54.241Z,94323.00
2023-04-02T00:14:54.248Z,94323.00
2023-04-02T00:15:54.252Z,94329.00
2023-04-02T00:16:54.254Z,94331.00
2023-04-02T00:17:54.261Z,94327.00
2023-04-02T00:18:54.233Z,94327.00
2023-04-02T00:19:54.239Z,94333.00
2023-04-02T00:20:54.299Z,94327.00
2023-04-02T00:21:54.346Z,94327.00
2023-04-02T00:22:54.343Z,94325.00
2023-04-02T00:23:54.375Z,94325.00
2023-04-02T00:24:54.377Z,94327.00
2023-04-02T00:25:54.354Z,94329.00
2023-04-02T00:26:54.388Z,94331.00
2023-04-02T00:27:54.352Z,94331.00
2023-04-02T00:28:54.379Z,94331.00
2023-04-02T00:29:54.374Z,94331.00
2023-04-02T00:30:54.386Z,94333.00
2023-04-02T00:31:54.448Z,94333.00
2023-04-02T00:32:54.482Z,94333.00
2023-04-02T00:33:54.433Z,94333.00
2023-04-02T00:34:54.458Z,94333.00
2023-04-02T00:35:54.470Z,94329.00
2023-04-02T00:36:54.488Z,94333.00
2023-04-02T00:37:54.479Z,94335.00
2023-04-02T00:38:54.456Z,94333.00
2023-04-02T00:39:54.464Z,94336.00
2023-04-02T00:40:54.446Z,94333.00
2023-04-02T00:41:54.459Z,94333.00
2023-04-02T00:42:54.467Z,94331.00
2023-04-02T00:43:54.426Z,94331.00
2023-04-02T00:44:54.450Z,94331.00
2023-04-02T00:45:54.473Z,94331.00
2023-04-02T00:46:54.424Z,94331.00
2023-04-02T00:47:54.454Z,94331.00
2023-04-02T00:48:54.399Z,94331.00
2023-04-02T00:49:54.431Z,94329.00
2023-04-02T00:50:54.445Z,94327.00
2023-04-02T00:51:54.448Z,94325.00
2023-04-02T00:52:54.450Z,94325.00
2023-04-02T00:53:54.408Z,94327.00
2023-04-02T00:54:54.410Z,94325.00
2023-04-02T00:55:54.429Z,94325.00
2023-04-02T00:56:54.470Z,94327.00
2023-04-02T00:57:54.405Z,94329.00
2023-04-02T00:58:54.408Z,94327.00
2023-04-02T00:59:54.419Z,94327.00
2023-04-02T01:00:54.422Z,94327.00
2023-04-02T01:01:54.492Z,94327.00
2023-04-02T01:02:54.479Z,94327.00
2023-04-02T01:03:54.426Z,94329.00
2023-04-02T01:04:54.411Z,94331.00
2023-04-02T01:05:54.406Z,94331.00
2023-04-02T01:06:54.407Z,94335.00
2023-04-02T01:07:54.434Z,94333.00
2023-04-02T01:08:54.415Z,94333.00
2023-04-02T01:09:54.411Z,94335.00
2023-04-02T01:10:54.424Z,94336.00
2023-04-02T01:11:54.390Z,94336.00
2023-04-02T01:12:54.388Z,94335.00
2023-04-02T01:13:54.406Z,94336.00
2023-04-02T01:14:54.402Z,94338.00
2023-04-02T01:15:54.440Z,94340.00
2023-04-02T01:16:54.383Z,94340.00
2023-04-02T01:17:54.540Z,94340.00
2023-04-02T01:18:54.398Z,94338.00
2023-04-02T01:19:54.465Z,94336.00
2023-04-02T01:20:54.416Z,94342.00
2023-04-02T01:21:54.399Z,94342.00
2023-04-02T01:22:54.394Z,94338.00
2023-04-02T01:23:54.397Z,94340.00
2023-04-02T01:24:54.413Z,94340.00
2023-04-02T01:25:54.358Z,94342.00
2023-04-02T01:26:54.400Z,94344.00
2023-04-02T01:27:54.383Z,94342.00
2023-04-02T01:28:54.397Z,94340.00
2023-04-02T01:29:54.366Z,94344.00
2023-04-02T01:30:54.494Z,94342.00
2023-04-02T01:31:54.379Z,94340.00
2023-04-02T01:32:54.369Z,94340.00
2023-04-02T01:33:54.386Z,94338.00
2023-04-02T01:34:54.366Z,94338.00
2023-04-02T01:35:54.407Z,94338.00
2023-04-02T01:36:54.382Z,94338.00
2023-04-02T01:37:54.340Z,94338.00
2023-04-02T01:38:54.342Z,94340.00
2023-04-02T01:39:54.362Z,94340.00
2023-04-02T01:40:54.356Z,94346.00
2023-04-02T01:41:54.361Z,94346.00
2023-04-02T01:42:54.360Z,94350.00
2023-04-02T01:43:54.366Z,94348.00
2023-04-02T01:44:54.353Z,94352.00
2023-04-02T01:45:54.349Z,94352.00
2023-04-02T01:46:54.395Z,94350.00
2023-04-02T01:47:54.404Z,94352.00
2023-04-02T01:48:54.387Z,94350.00
2023-04-02T01:49:54.386Z,94350.00
2023-04-02T01:50:54.387Z,94352.00
2023-04-02T01:51:54.399Z,94350.00
2023-04-02T01:52:54.401Z,94354.00
2023-04-02T01:53:54.402Z,94352.00
2023-04-02T01:54:54.397Z,94354.00
2023-04-02T01:55:54.372Z,94354.00
2023-04-02T01:56:54.439Z,94358.00
2023-04-02T01:57:54.402Z,94358.00
2023-04-02T01:58:54.389Z,94360.00
2023-04-02T01:59:54.352Z,94358.00
2023-04-02T02:00:54.449Z,94358.00
2023-04-02T02:01:54.364Z,94360.00
2023-04-02T02:02:54.346Z,94362.00
2023-04-02T02:03:54.356Z,94364.00
2023-04-02T02:04:54.369Z,94364.00
2023-04-02T02:05:54.374Z,94364.00
2023-04-02T02:06:54.369Z,94364.00
2023-04-02T02:07:54.330Z,94366.00
2023-04-02T02:08:54.352Z,94366.00
2023-04-02T02:09:54.355Z,94366.00
2023-04-02T02:10:54.368Z,94370.00
2023-04-02T02:11:54.372Z,94370.00
2023-04-02T02:12:54.359Z,94372.00
2023-04-02T02:13:54.365Z,94370.00
2023-04-02T02:14:54.359Z,94372.00
2023-04-02T02:15:54.389Z,94372.00
2023-04-02T02:16:54.373Z,94372.00
2023-04-02T02:17:54.410Z,94374.00
2023-04-02T02:18:54.359Z,94374.00
2023-04-02T02:19:54.335Z,94372.00
2023-04-02T02:20:54.359Z,94374.00
2023-04-02T02:21:54.363Z,94370.00
2023-04-02T02:22:54.336Z,94372.00
2023-04-02T02:23:54.332Z,94374.00
2023-04-02T02:24:54.362Z,94370.00
2023-04-02T02:25:54.369Z,94374.00
2023-04-02T02:26:54.405Z,94381.00
2023-04-02T02:27:54.354Z,94381.00
2023-04-02T02:28:54.369Z,94383.00
2023-04-02T02:29:54.348Z,94389.00
2023-04-02T02:30:54.376Z,94389.00
2023-04-02T02:31:54.370Z,94389.00
2023-04-02T02:32:54.439Z,94389.00
2023-04-02T02:33:54.346Z,94391.00
2023-04-02T02:34:54.349Z,94391.00
2023-04-02T02:35:54.371Z,94391.00
2023-04-02T02:36:54.331Z,94395.00
2023-04-02T02:37:54.344Z,94397.00
2023-04-02T02:38:54.743Z,94399.00
2023-04-02T02:39:54.383Z,94401.00
2023-04-02T02:40:54.377Z,94401.00
2023-04-02T02:41:54.341Z,94403.00
2023-04-02T02:42:54.334Z,94407.00
2023-04-02T02:43:54.332Z,94407.00
2023-04-02T02:44:54.344Z,94409.00
2023-04-02T02:45:54.355Z,94411.00
2023-04-02T02:46:54.333Z,94409.00
2023-04-02T02:47:54.365Z,94409.00
2023-04-02T02:48:54.344Z,94409.00
2023-04-02T02:49:54.335Z,94413.00
2023-04-02T02:50:54.315Z,94409.00
2023-04-02T02:51:54.315Z,94413.00
2023-04-02T02:52:54.350Z,94417.00
2023-04-02T02:53:54.336Z,94413.00
2023-04-02T02:54:54.341Z,94415.00
2023-04-02T02:55:54.347Z,94415.00
2023-04-02T02:56:54.398Z,94417.00
2023-04-02T02:57:54.384Z,94415.00
2023-04-02T02:58:54.387Z,94417.00
2023-04-02T02:59:54.363Z,94419.00
2023-04-02T03:00:54.401Z,94419.00
2023-04-02T03:01:54.384Z,94417.00
2023-04-02T03:02:54.450Z,94419.00
2023-04-02T03:03:54.615Z,94419.00
2023-04-02T03:04:54.384Z,94419.00
2023-04-02T03:05:54.386Z,94419.00
2023-04-02T03:06:54.395Z,94419.00
2023-04-02T03:07:54.372Z,94419.00
2023-04-02T03:08:54.376Z,94423.00
2023-04-02T03:09:54.403Z,94423.00
2023-04-02T03:10:54.413Z,94423.00
2023-04-02T03:11:54.387Z,94427.00
2023-04-02T03:12:54.409Z,94428.00
2023-04-02T03:13:54.418Z,94427.00
2023-04-02T03:14:54.417Z,94428.00
2023-04-02T03:15:54.474Z,94428.00
2023-04-02T03:16:54.438Z,94434.00
2023-04-02T03:17:54.523Z,94434.00
2023-04-02T03:18:54.439Z,94436.00
2023-04-02T03:19:54.448Z,94440.00
2023-04-02T03:20:54.458Z,94436.00
2023-04-02T03:21:54.471Z,94436.00
2023-04-02T03:22:54.445Z,94442.00
2023-04-02T03:23:54.461Z,94442.00
2023-04-02T03:24:54.441Z,94444.00
2023-04-02T03:25:54.463Z,94444.00
2023-04-02T03:26:54.468Z,94444.00
2023-04-02T03:27:54.493Z,94446.00
2023-04-02T03:28:54.508Z,94444.00
2023-04-02T03:29:54.474Z,94448.00
2023-04-02T03:30:54.501Z,94448.00
2023-04-02T03:31:54.503Z,94448.00
2023-04-02T03:32:54.493Z,94448.00
2023-04-02T03:33:54.481Z,94448.00
2023-04-02T03:34:54.486Z,94448.00
2023-04-02T03:35:54.496Z,94444.00
2023-04-02T03:36:54.505Z,94446.00
2023-04-02T03:37:54.514Z,94450.00
2023-04-02T03:38:54.525Z,94452.00
2023-04-02T03:39:54.522Z,94456.00
2023-04-02T03:40:54.513Z,94454.00
2023-04-02T03:41:54.549Z,94458.00
2023-04-02T03:42:54.542Z,94458.00
2023-04-02T03:43:54.564Z,94458.00
2023-04-02T03:44:54.525Z,94460.00
2023-04-02T03:45:54.566Z,94460.00
2023-04-02T03:46:54.541Z,94458.00
2023-04-02T03:47:54.641Z,94460.00
2023-04-02T03:48:54.544Z,94458.00
2023-04-02T03:49:54.551Z,94458.00
2023-04-02T03:50:54.563Z,94460.00
2023-04-02T03:51:54.579Z,94460.00
2023-04-02T03:52:54.580Z,94460.00
2023-04-02T03:53:54.585Z,94458.00
2023-04-02T03:54:54.713Z,94464.00
2023-04-02T03:55:54.605Z,94462.00
2023-04-02T03:56:54.661Z,94462.00
2023-04-02T03:57:54.627Z,94460.00
2023-04-02T03:58:55.158Z,94462.00
2023-04-02T03:59:54.646Z,94464.00
2023-04-02T04:00:54.668Z,94462.00
2023-04-02T04:01:54.651Z,94464.00
2023-04-02T04:02:54.709Z,94466.00
2023-04-02T04:03:54.698Z,94464.00
2023-04-02T04:04:54.649Z,94466.00
2023-04-02T04:05:54.646Z,94464.00
2023-04-02T04:06:54.653Z,94472.00
2023-04-02T04:07:54.689Z,94470.00
2023-04-02T04:08:54.841Z,94472.00
2023-04-02T04:09:55.652Z,94466.00
2023-04-02T04:10:54.782Z,94472.00
2023-04-02T04:11:54.656Z,94468.00
2023-04-02T04:12:54.708Z,94474.00
2023-04-02T04:13:54.677Z,94476.00
2023-04-02T04:14:54.676Z,94476.00
2023-04-02T04:15:54.677Z,94476.00
2023-04-02T04:16:54.817Z,94478.00
2023-04-02T04:17:54.715Z,94474.00
2023-04-02T04:18:54.689Z,94476.00
2023-04-02T04:19:54.702Z,94478.00
2023-04-02T04:20:54.712Z,94482.00
2023-04-02T04:21:54.742Z,94482.00
2023-04-02T04:22:54.722Z,94483.00
2023-04-02T04:23:54.698Z,94489.00
2023-04-02T04:24:54.750Z,94485.00
2023-04-02T04:25:54.700Z,94485.00
2023-04-02T04:26:54.755Z,94487.00
2023-04-02T04:27:54.747Z,94491.00
2023-04-02T04:28:54.743Z,94495.00
2023-04-02T04:29:54.751Z,94497.00
2023-04-02T04:30:54.741Z,94501.00
2023-04-02T04:31:54.807Z,94501.00
2023-04-02T04:32:54.799Z,94503.00
2023-04-02T04:33:54.773Z,94505.00
2023-04-02T04:34:54.775Z,94505.00
2023-04-02T04:35:54.824Z,94509.00
2023-04-02T04:36:54.845Z,94511.00
2023-04-02T04:37:54.748Z,94509.00
2023-04-02T04:38:54.793Z,94513.00
2023-04-02T04:39:54.800Z,94513.00
2023-04-02T04:40:54.756Z,94509.00
2023-04-02T04:41:54.795Z,94513.00
2023-04-02T04:42:54.801Z,94515.00
2023-04-02T04:43:54.797Z,94517.00
2023-04-02T04:44:54.826Z,94519.00
2023-04-02T04:45:54.837Z,94521.00
2023-04-02T04:46:54.829Z,94523.00
2023-04-02T04:47:54.925Z,94525.00
2023-04-02T04:48:54.822Z,94523.00
2023-04-02T04:49:54.830Z,94525.00
2023-04-02T04:50:54.877Z,94523.00
2023-04-02T04:51:54.854Z,94527.00
2023-04-02T04:52:54.878Z,94523.00
2023-04-02T04:53:54.882Z,94523.00
2023-04-02T04:54:54.844Z,94529.00
2023-04-02T04:55:54.875Z,94527.00
2023-04-02T04:56:54.897Z,94527.00
2023-04-02T04:57:54.977Z,94527.00
2023-04-02T04:58:54.906Z,94529.00
2023-04-02T04:59:54.912Z,94529.00
2023-04-02T05:00:54.907Z,94530.00
2023-04-02T05:01:54.925Z,94532.00
2023-04-02T05:02:54.948Z,94534.00
2023-04-02T05:03:54.920Z,94534.00
2023-04-02T05:04:54.945Z,94536.00
2023-04-02T05:05:54.902Z,94536.00
2023-04-02T05:06:54.922Z,94536.00
2023-04-02T05:07:54.926Z,94540.00
2023-04-02T05:08:54.944Z,94538.00
2023-04-02T05:09:54.918Z,94540.00
2023-04-02T05:10:54.949Z,94540.00
2023-04-02T05:11:54.935Z,94538.00
2023-04-02T05:12:54.948Z,94540.00
2023-04-02T05:13:54.936Z,94542.00
2023-04-02T05:14:54.940Z,94544.00
2023-04-02T05:15:55.067Z,94542.00
2023-04-02T05:16:54.989Z,94542.00
2023-04-02T05:17:55.064Z,94542.00
2023-04-02T05:18:55.003Z,94542.00
2023-04-02T05:19:55.012Z,94542.00
2023-04-02T05:20:55.039Z,94542.00
2023-04-02T05:21:55.045Z,94544.00
2023-04-02T05:22:55.048Z,94546.00
2023-04-02T05:23:55.067Z,94544.00
2023-04-02T05:24:55.054Z,94546.00
2023-04-02T05:25:55.051Z,94546.00
2023-04-02T05:26:55.056Z,94546.00
2023-04-02T05:27:55.091Z,94546.00
2023-04-02T05:28:55.083Z,94548.00
2023-04-02T05:29:55.110Z,94548.00
2023-04-02T05:30:55.083Z,94550.00
2023-04-02T05:31:55.135Z,94552.00
2023-04-02T05:32:55.127Z,94552.00
2023-04-02T05:33:55.147Z,94556.00
2023-04-02T05:34:55.139Z,94554.00
2023-04-02T05:35:55.165Z,94556.00
2023-04-02T05:36:55.226Z,94556.00
2023-04-02T05:37:55.166Z,94560.00
2023-04-02T05:38:55.168Z,94562.00
2023-04-02T05:39:55.161Z,94564.00
2023-04-02T05:40:55.192Z,94568.00
2023-04-02T05:41:55.162Z,94568.00
2023-04-02T05:42:55.200Z,94570.00
2023-04-02T05:43:55.246Z,94570.00
2023-04-02T05:44:55.243Z,94574.00
2023-04-02T05:45:55.228Z,94572.00
2023-04-02T05:46:55.298Z,94572.00
2023-04-02T05:47:55.296Z,94572.00
2023-04-02T05:48:55.276Z,94574.00
2023-04-02T05:49:55.266Z,94574.00
2023-04-02T05:50:55.286Z,94576.00
2023-04-02T05:51:57.098Z,94576.00
2023-04-02T05:52:55.291Z,94577.00
2023-04-02T05:53:55.290Z,94577.00
2023-04-02T05:54:55.318Z,94579.00
2023-04-02T05:55:55.303Z,94581.00
2023-04-02T05:56:55.371Z,94583.00
2023-04-02T05:58:13.531Z,94585.00
2023-04-02T05:58:56.462Z,94587.00
2023-04-02T05:59:55.345Z,94585.00
2023-04-02T06:00:55.322Z,94589.00
2023-04-02T06:01:55.330Z,94589.00
2023-04-02T06:02:55.410Z,94587.00
2023-04-02T06:03:55.405Z,94589.00
2023-04-02T06:04:55.346Z,94589.00
2023-04-02T06:05:55.286Z,94589.00
2023-04-02T06:06:55.294Z,94587.00
2023-04-02T06:07:55.289Z,94587.00
2023-04-02T06:08:55.287Z,94587.00
2023-04-02T06:09:55.247Z,94587.00
2023-04-02T06:10:55.278Z,94585.00
2023-04-02T06:11:55.260Z,94585.00
2023-04-02T06:12:55.225Z,94583.00
2023-04-02T06:13:55.233Z,94585.00
2023-04-02T06:14:55.226Z,94585.00
2023-04-02T06:15:55.237Z,94587.00
2023-04-02T06:16:55.235Z,94593.00
2023-04-02T06:17:55.225Z,94595.00
2023-04-02T06:18:55.217Z,94591.00
2023-04-02T06:19:55.277Z,94597.00
2023-04-02T06:20:55.209Z,94597.00
2023-04-02T06:21:55.203Z,94593.00
2023-04-02T06:22:55.180Z,94597.00
2023-04-02T06:23:55.178Z,94595.00
2023-04-02T06:24:55.152Z,94595.00
2023-04-02T06:25:55.139Z,94595.00
2023-04-02T06:26:55.124Z,94595.00
2023-04-02T06:27:55.111Z,94597.00
2023-04-02T06:28:55.147Z,94599.00
2023-04-02T06:29:55.129Z,94601.00
2023-04-02T06:30:55.178Z,94603.00
2023-04-02T06:31:55.129Z,94607.00
2023-04-02T06:32:55.165Z,94607.00
2023-04-02T06:33:55.120Z,94609.00
2023-04-02T06:34:55.083Z,94611.00
2023-04-02T06:35:55.143Z,94611.00
2023-04-02T06:36:55.094Z,94611.00
2023-04-02T06:37:55.091Z,94609.00
2023-04-02T06:38:55.087Z,94609.00
2023-04-02T06:39:55.090Z,94609.00
2023-04-02T06:40:56.920Z,94611.00
2023-04-02T06:41:55.077Z,94613.00
2023-04-02T06:42:55.092Z,94613.00
2023-04-02T06:43:55.072Z,94613.00
2023-04-02T06:44:55.105Z,94613.00
2023-04-02T06:45:55.205Z,94615.00
2023-04-02T06:46:55.036Z,94615.00
2023-04-02T06:47:55.067Z,94615.00
2023-04-02T06:48:55.061Z,94615.00
2023-04-02T06:49:55.003Z,94619.00
2023-04-02T06:50:55.021Z,94615.00
2023-04-02T06:51:55.021Z,94615.00
2023-04-02T06:52:55.004Z,94617.00
2023-04-02T06:53:55.003Z,94617.00
2023-04-02T06:54:55.008Z,94617.00
2023-04-02T06:55:54.991Z,94617.00
2023-04-02T06:56:55.004Z,94617.00
2023-04-02T06:57:55.008Z,94615.00
2023-04-02T06:58:55.001Z,94615.00
2023-04-02T06:59:54.977Z,94619.00
2023-04-02T07:00:54.946Z,94617.00
2023-04-02T07:01:54.976Z,94615.00
2023-04-02T07:02:54.946Z,94617.00
2023-04-02T07:03:54.970Z,94619.00
2023-04-02T07:04:55.008Z,94617.00
2023-04-02T07:05:54.918Z,94617.00
2023-04-02T07:06:54.931Z,94619.00
2023-04-02T07:07:54.912Z,94619.00
2023-04-02T07:08:54.903Z,94617.00
2023-04-02T07:09:54.881Z,94619.00
2023-04-02T07:10:54.917Z,94617.00
2023-04-02T07:11:54.898Z,94615.00
2023-04-02T07:12:54.891Z,94613.00
2023-04-02T07:13:54.883Z,94617.00
2023-04-02T07:14:54.877Z,94615.00
2023-04-02T07:15:54.878Z,94613.00
2023-04-02T07:16:54.821Z,94613.00
2023-04-02T07:17:54.923Z,94613.00
2023-04-02T07:18:54.826Z,94613.00
2023-04-02T07:19:54.853Z,94615.00
2023-04-02T07:20:54.817Z,94615.00
2023-04-02T07:21:54.813Z,94617.00
2023-04-02T07:22:54.797Z,94617.00
2023-04-02T07:23:54.796Z,94615.00
2023-04-02T07:24:54.809Z,94613.00
2023-04-02T07:25:54.773Z,94613.00
2023-04-02T07:26:54.756Z,94613.00
2023-04-02T07:27:54.850Z,94611.00
2023-04-02T07:28:54.875Z,94611.00
2023-04-02T07:29:54.767Z,94611.00
2023-04-02T07:30:54.740Z,94615.00
2023-04-02T07:31:54.770Z,94613.00
2023-04-02T07:32:54.819Z,94615.00
2023-04-02T07:33:54.748Z,94613.00
2023-04-02T07:34:54.715Z,94611.00
2023-04-02T07:35:54.786Z,94617.00
2023-04-02T07:36:54.735Z,94613.00
2023-04-02T07:37:54.706Z,94613.00
2023-04-02T07:38:54.716Z,94611.00
2023-04-02T07:39:54.703Z,94611.00
2023-04-02T07:40:54.687Z,94611.00
2023-04-02T07:41:54.670Z,94619.00
2023-04-02T07:42:54.707Z,94619.00
2023-04-02T07:43:54.677Z,94621.00
2023-04-02T07:44:54.673Z,94621.00
2023-04-02T07:45:54.637Z,94627.00
2023-04-02T07:46:54.670Z,94627.00
2023-04-02T07:47:54.677Z,94629.00
2023-04-02T07:48:54.633Z,94629.00
2023-04-02T07:49:54.614Z,94629.00
2023-04-02T07:50:54.639Z,94629.00
2023-04-02T07:51:54.614Z,94631.00
2023-04-02T07:52:54.621Z,94631.00
2023-04-02T07:53:54.606Z,94631.00
2023-04-02T07:54:54.614Z,94638.00
2023-04-02T07:55:54.567Z,94631.00
2023-04-02T07:56:54.649Z,94631.00
2023-04-02T07:57:54.583Z,94631.00
2023-04-02T07:58:54.573Z,94629.00
2023-04-02T07:59:54.597Z,94631.00
2023-04-02T08:00:54.559Z,94631.00
2023-04-02T08:01:54.587Z,94631.00
2023-04-02T08:02:54.684Z,94638.00
2023-04-02T08:03:54.929Z,94631.00
2023-04-02T08:04:54.536Z,94638.00
2023-04-02T08:05:54.520Z,94629.00
2023-04-02T08:06:54.493Z,94638.00
2023-04-02T08:07:54.525Z,94631.00
2023-04-02T08:08:54.541Z,94640.00
2023-04-02T08:09:54.501Z,94638.00
2023-04-02T08:10:54.487Z,94631.00
2023-04-02T08:11:54.529Z,94631.00
2023-04-02T08:12:54.516Z,94631.00
2023-04-02T08:13:54.472Z,94638.00
2023-04-02T08:14:54.487Z,94631.00
2023-04-02T08:15:54.450Z,94638.00
2023-04-02T08:16:54.545Z,94640.00
2023-04-02T08:17:54.465Z,94638.00
2023-04-02T08:18:54.774Z,94640.00
2023-04-02T08:19:55.430Z,94638.00
2023-04-02T08:20:54.440Z,94640.00
2023-04-02T08:21:54.499Z,94640.00
2023-04-02T08:22:54.559Z,94640.00
2023-04-02T08:23:54.626Z,94638.00
2023-04-02T08:24:54.688Z,94644.00
2023-04-02T08:25:54.749Z,94646.00
2023-04-02T08:26:54.820Z,94646.00
2023-04-02T08:27:54.861Z,94644.00
2023-04-02T08:28:54.910Z,94640.00
2023-04-02T08:29:55.013Z,94642.00
2023-04-02T08:30:55.104Z,94646.00
2023-04-02T08:31:55.100Z,94642.00
2023-04-02T08:32:55.196Z,94648.00
2023-04-02T08:33:55.211Z,94644.00
2023-04-02T08:34:55.300Z,94644.00
2023-04-02T08:35:55.393Z,94648.00
2023-04-02T08:36:55.413Z,94646.00
2023-04-02T08:37:55.463Z,94644.00
2023-04-02T08:38:55.514Z,94644.00
2023-04-02T08:39:55.571Z,94640.00
2023-04-02T08:40:55.619Z,94644.00
2023-04-02T08:41:55.701Z,94642.00
2023-04-02T08:42:55.782Z,94640.00
2023-04-02T08:43:55.779Z,94640.00
2023-04-02T08:44:55.806Z,94638.00
2023-04-02T08:45:55.879Z,94640.00
2023-04-02T08:46:55.933Z,94638.00
2023-04-02T08:47:56.140Z,94638.00
2023-04-02T08:48:56.058Z,94631.00
2023-04-02T08:49:56.113Z,94631.00
2023-04-02T08:50:56.172Z,94629.00
2023-04-02T08:51:56.201Z,94629.00
2023-04-02T08:52:56.240Z,94627.00
2023-04-02T08:53:56.322Z,94627.00
2023-04-02T08:54:56.376Z,94627.00
2023-04-02T08:55:56.398Z,94627.00
2023-04-02T08:56:56.509Z,94625.00
2023-04-02T08:57:56.510Z,94621.00
2023-04-02T08:58:56.559Z,94623.00
2023-04-02T08:59:56.596Z,94623.00
2023-04-02T09:00:56.622Z,94623.00
2023-04-02T09:01:56.866Z,94621.00
2023-04-02T09:02:56.751Z,94621.00
2023-04-02T09:03:56.777Z,94625.00
2023-04-02T09:04:56.871Z,94621.00
2023-04-02T09:05:56.874Z,94619.00
2023-04-02T09:06:56.871Z,94617.00
2023-04-02T09:07:56.917Z,94617.00
2023-04-02T09:08:57.011Z,94621.00
2023-04-02T09:09:57.023Z,94619.00
2023-04-02T09:10:57.062Z,94617.00
2023-04-02T09:11:57.109Z,94619.00
2023-04-02T09:12:57.157Z,94619.00
2023-04-02T09:13:57.171Z,94621.00
2023-04-02T09:14:57.238Z,94621.00
2023-04-02T09:15:57.271Z,94617.00
2023-04-02T09:16:57.274Z,94619.00
2023-04-02T09:17:59.062Z,94619.00
2023-04-02T09:18:57.371Z,94619.00
2023-04-02T09:19:57.387Z,94615.00
2023-04-02T09:20:57.435Z,94613.00
2023-04-02T09:21:57.466Z,94613.00
2023-04-02T09:22:57.495Z,94615.00
2023-04-02T09:23:57.534Z,94613.00
2023-04-02T09:24:57.562Z,94613.00
2023-04-02T09:26:04.063Z,94611.00
2023-04-02T09:26:58.590Z,94611.00
2023-04-02T09:27:57.585Z,94613.00
2023-04-02T09:28:57.575Z,94613.00
2023-04-02T09:29:57.539Z,94615.00
2023-04-02T09:30:57.550Z,94615.00
2023-04-02T09:31:57.735Z,94619.00
2023-04-02T09:32:57.581Z,94617.00
2023-04-02T09:33:57.531Z,94615.00
2023-04-02T09:34:57.500Z,94617.00
2023-04-02T09:35:57.631Z,94621.00
2023-04-02T09:36:57.517Z,94617.00
2023-04-02T09:37:57.513Z,94619.00
2023-04-02T09:38:57.502Z,94621.00
2023-04-02T09:39:57.492Z,94615.00
2023-04-02T09:40:57.520Z,94617.00
2023-04-02T09:42:05.091Z,94615.00
2023-04-02T09:42:58.529Z,94615.00
2023-04-02T09:43:57.527Z,94611.00
2023-04-02T09:44:57.490Z,94613.00
2023-04-02T09:45:57.489Z,94615.00
2023-04-02T09:46:57.480Z,94615.00
2023-04-02T09:47:57.476Z,94615.00
2023-04-02T09:48:57.489Z,94613.00
2023-04-02T09:49:57.446Z,94613.00
2023-04-02T09:50:57.428Z,94613.00
2023-04-02T09:51:57.435Z,94611.00
2023-04-02T09:52:57.448Z,94617.00
2023-04-02T09:53:57.440Z,94615.00
2023-04-02T09:54:57.407Z,94615.00
2023-04-02T09:55:57.421Z,94617.00
2023-04-02T09:56:57.439Z,94619.00
2023-04-02T09:57:57.403Z,94619.00
2023-04-02T09:58:57.414Z,94615.00
2023-04-02T09:59:57.401Z,94623.00
2023-04-02T10:00:57.499Z,94619.00
2023-04-02T10:01:57.457Z,94619.00
2023-04-02T10:02:57.505Z,94623.00
2023-04-02T10:03:57.555Z,94623.00
2023-04-02T10:04:57.532Z,94623.00
2023-04-02T10:05:57.527Z,94621.00
2023-04-02T10:06:57.571Z,94621.00
2023-04-02T10:07:57.598Z,94623.00
2023-04-02T10:08:57.576Z,94625.00
2023-04-02T10:09:57.582Z,94621.00
2023-04-02T10:10:57.622Z,94623.00
2023-04-02T10:11:57.652Z,94623.00
2023-04-02T10:12:57.680Z,94619.00
2023-04-02T10:13:57.731Z,94617.00
2023-04-02T10:14:57.725Z,94615.00
2023-04-02T10:15:57.752Z,94615.00
2023-04-02T10:16:57.847Z,94617.00
2023-04-02T10:17:57.803Z,94617.00
2023-04-02T10:18:57.820Z,94613.00
2023-04-02T10:19:57.811Z,94613.00
2023-04-02T10:20:57.828Z,94611.00
2023-04-02T10:21:57.833Z,94613.00
2023-04-02T10:22:57.849Z,94615.00
2023-04-02T10:23:57.878Z,94613.00
2023-04-02T10:24:57.890Z,94615.00
2023-04-02T10:25:57.937Z,94613.00
2023-04-02T10:26:57.930Z,94613.00
2023-04-02T10:27:57.953Z,94611.00
2023-04-02T10:28:57.987Z,94613.00
2023-04-02T10:29:57.994Z,94617.00
2023-04-02T10:30:58.046Z,94613.00
2023-04-02T10:31:58.020Z,94613.00
2023-04-02T10:32:58.036Z,94611.00
2023-04-02T10:33:58.056Z,94617.00
2023-04-02T10:34:58.060Z,94617.00
2023-04-02T10:35:58.091Z,94615.00
2023-04-02T10:36:58.082Z,94621.00
2023-04-02T10:37:58.088Z,94619.00
2023-04-02T10:38:58.097Z,94619.00
2023-04-02T10:39:58.088Z,94621.00
2023-04-02T10:40:58.083Z,94621.00
2023-04-02T10:41:58.100Z,94621.00
2023-04-02T10:42:58.088Z,94619.00
2023-04-02T10:44:03.649Z,94621.00
2023-04-02T10:44:59.059Z,94621.00
2023-04-02T10:45:58.049Z,94623.00
2023-04-02T10:46:58.095Z,94621.00
2023-04-02T10:47:58.102Z,94621.00
2023-04-02T10:48:58.301Z,94623.00
2023-04-02T10:49:58.029Z,94623.00
2023-04-02T10:50:58.031Z,94623.00
2023-04-02T10:51:58.006Z,94623.00
2023-04-02T10:52:58.041Z,94623.00
2023-04-02T10:53:58.011Z,94623.00
2023-04-02T10:54:57.995Z,94625.00
2023-04-02T10:55:58.021Z,94623.00
2023-04-02T10:56:58.001Z,94623.00
2023-04-02T10:57:57.962Z,94623.00
2023-04-02T10:58:58.030Z,94625.00
2023-04-02T10:59:58.003Z,94629.00
2023-04-02T11:00:57.978Z,94625.00
2023-04-02T11:01:58.166Z,94629.00
2023-04-02T11:02:58.101Z,94629.00
2023-04-02T11:03:58.389Z,94629.00
2023-04-02T11:04:58.873Z,94631.00
2023-04-02T11:05:57.898Z,94631.00
2023-04-02T11:07:06.960Z,94629.00
2023-04-02T11:07:58.908Z,94631.00
2023-04-02T11:08:57.906Z,94631.00
2023-04-02T11:09:57.910Z,94638.00
2023-04-02T11:10:57.895Z,94631.00
2023-04-02T11:11:57.878Z,94638.00
2023-04-02T11:12:57.896Z,94631.00
2023-04-02T11:13:57.887Z,94640.00
2023-04-02T11:14:57.879Z,94638.00
2023-04-02T11:15:57.901Z,94640.00
2023-04-02T11:16:57.872Z,94638.00
2023-04-02T11:17:57.890Z,94640.00
2023-04-02T11:18:57.848Z,94642.00
2023-04-02T11:19:57.841Z,94642.00
2023-04-02T11:20:57.824Z,94642.00
2023-04-02T11:22:00.313Z,94644.00
2023-04-02T11:22:57.836Z,94644.00
2023-04-02T11:23:57.841Z,94648.00
2023-04-02T11:24:57.809Z,94648.00
2023-04-02T11:25:57.773Z,94648.00
2023-04-02T11:26:57.785Z,94650.00
2023-04-02T11:27:57.783Z,94652.00
2023-04-02T11:28:57.778Z,94656.00
2023-04-02T11:29:57.765Z,94654.00
2023-04-02T11:30:57.780Z,94656.00
2023-04-02T11:31:57.747Z,94658.00
2023-04-02T11:32:57.759Z,94656.00
2023-04-02T11:33:58.325Z,94656.00
2023-04-02T11:35:06.624Z,94658.00
2023-04-02T11:35:58.754Z,94660.00
2023-04-02T11:36:57.726Z,94664.00
2023-04-02T11:37:57.727Z,94662.00
2023-04-02T11:39:07.400Z,94664.00
2023-04-02T11:39:58.699Z,94666.00
2023-04-02T11:40:57.685Z,94664.00
2023-04-02T11:41:57.676Z,94666.00
2023-04-02T11:42:57.661Z,94664.00
2023-04-02T11:43:57.655Z,94668.00
2023-04-02T11:44:57.688Z,94670.00